createdAt,value
2018-10-16T00:00:21.402Z,92.21
2018-10-16T00:01:21.402Z,92.41
2018-10-16T00:02:21.413Z,91.58
2018-10-16T00:03:21.360Z,91.38
2018-10-16T00:04:21.382Z,91.69
2018-10-16T00:05:21.358Z,90.76
2018-10-16T00:06:21.328Z,90.76
2018-10-16T00:07:21.320Z,90.76
2018-10-16T00:08:21.327Z,90.45
2018-10-16T00:09:21.327Z,90.10
2018-10-16T00:10:21.316Z,89.89
2018-10-16T00:11:21.291Z,90.66
2018-10-16T00:12:21.263Z,90.66
2018-10-16T00:13:21.252Z,90.66
2018-10-16T00:14:21.247Z,90.66
2018-10-16T00:15:21.252Z,90.76
2018-10-16T00:16:21.220Z,90.25
2018-10-16T00:17:21.248Z,89.62
2018-10-16T00:18:21.222Z,89.62
2018-10-16T00:19:21.186Z,89.73
2018-10-16T00:20:21.219Z,89.62
2018-10-16T00:21:21.193Z,89.62
2018-10-16T00:22:21.194Z,89.17
2018-10-16T00:23:21.147Z,89.42
2018-10-16T00:24:21.176Z,89.32
2018-10-16T00:25:21.154Z,89.73
2018-10-16T00:26:21.156Z,90.19
2018-10-16T00:27:21.116Z,90.49
2018-10-16T00:28:21.097Z,90.80
2018-10-16T00:29:21.092Z,90.80
2018-10-16T00:30:21.090Z,91.32
2018-10-16T00:31:21.073Z,91.73
2018-10-16T00:32:21.135Z,92.35
2018-10-16T00:33:21.056Z,92.40
2018-10-16T00:34:21.072Z,92.76
2018-10-16T00:35:21.073Z,92.25
2018-10-16T00:36:21.036Z,92.40
2018-10-16T00:37:20.993Z,93.01
2018-10-16T00:38:21.019Z,92.40
2018-10-16T00:39:20.998Z,92.40
2018-10-16T00:40:20.964Z,91.98
2018-10-16T00:41:21.012Z,92.25
2018-10-16T00:42:20.988Z,91.98
2018-10-16T00:43:20.924Z,92.25
2018-10-16T00:44:20.969Z,92.08
2018-10-16T00:45:20.936Z,92.14
2018-10-16T00:46:20.925Z,92.04
2018-10-16T00:47:20.886Z,91.94
2018-10-16T00:48:20.944Z,92.04
2018-10-16T00:49:20.848Z,91.42
2018-10-16T00:50:20.867Z,91.83
2018-10-16T00:51:20.853Z,90.39
2018-10-16T00:52:20.870Z,89.98
2018-10-16T00:53:20.827Z,90.49
2018-10-16T00:54:20.804Z,90.53
2018-10-16T00:55:20.816Z,90.91
2018-10-16T00:56:20.781Z,90.80
2018-10-16T00:57:20.799Z,90.80
2018-10-16T00:58:20.794Z,90.28
2018-10-16T00:59:20.765Z,90.39
2018-10-16T01:00:20.775Z,90.19
2018-10-16T01:01:20.721Z,90.59
2018-10-16T01:02:20.712Z,90.49
2018-10-16T01:03:20.725Z,90.53
2018-10-16T01:04:20.685Z,90.64
2018-10-16T01:05:20.679Z,90.84
2018-10-16T01:06:21.531Z,91.77
2018-10-16T01:07:20.713Z,91.46
2018-10-16T01:08:20.666Z,92.40
2018-10-16T01:09:20.643Z,92.40
2018-10-16T01:10:20.614Z,92.08
2018-10-16T01:11:20.637Z,91.36
2018-10-16T01:12:20.621Z,90.64
2018-10-16T01:13:20.629Z,90.64
2018-10-16T01:14:20.725Z,90.64
2018-10-16T01:15:20.586Z,90.64
2018-10-16T01:16:20.558Z,90.74
2018-10-16T01:17:20.546Z,90.43
2018-10-16T01:18:20.571Z,90.22
2018-10-16T01:19:20.527Z,90.43
2018-10-16T01:20:20.548Z,89.92
2018-10-16T01:21:20.505Z,90.53
2018-10-16T01:22:20.486Z,90.33
2018-10-16T01:23:20.513Z,90.12
2018-10-16T01:24:20.499Z,90.74
2018-10-16T01:25:20.466Z,90.33
2018-10-16T01:26:20.444Z,89.92
2018-10-16T01:27:20.435Z,90.02
2018-10-16T01:28:20.419Z,90.26
2018-10-16T01:29:20.443Z,90.37
2018-10-16T01:30:20.421Z,90.16
2018-10-16T01:31:20.424Z,90.78
2018-10-16T01:32:20.420Z,90.78
2018-10-16T01:33:20.384Z,90.68
2018-10-16T01:34:20.356Z,90.06
2018-10-16T01:35:20.349Z,90.37
2018-10-16T01:36:20.369Z,90.47
2018-10-16T01:37:20.325Z,89.95
2018-10-16T01:38:20.344Z,89.86
2018-10-16T01:39:20.312Z,89.75
2018-10-16T01:40:26.907Z,89.86
2018-10-16T01:41:20.321Z,90.37
2018-10-16T01:42:20.278Z,90.58
2018-10-16T01:43:20.320Z,90.78
2018-10-16T01:44:20.278Z,90.68
2018-10-16T01:45:20.259Z,91.61
2018-10-16T01:46:20.255Z,91.92
2018-10-16T01:47:20.229Z,91.71
2018-10-16T01:48:20.217Z,91.61
2018-10-16T01:49:20.243Z,91.61
2018-10-16T01:50:20.196Z,91.92
2018-10-16T01:51:20.199Z,91.92
2018-10-16T01:52:20.161Z,91.82
2018-10-16T01:53:20.177Z,91.61
2018-10-16T01:54:20.154Z,91.40
2018-10-16T01:55:20.125Z,91.71
2018-10-16T01:56:20.146Z,90.89
2018-10-16T01:57:20.103Z,91.24
2018-10-16T01:58:20.088Z,90.78
2018-10-16T01:59:20.088Z,91.65
2018-10-16T02:00:20.084Z,91.86
2018-10-16T02:01:20.074Z,91.44
2018-10-16T02:02:20.040Z,91.55
2018-10-16T02:03:20.055Z,91.86
2018-10-16T02:04:20.024Z,91.03
2018-10-16T02:05:20.073Z,91.40
2018-10-16T02:06:20.042Z,90.83
2018-10-16T02:07:20.032Z,90.52
2018-10-16T02:08:19.995Z,90.93
2018-10-16T02:09:19.979Z,91.28
2018-10-16T02:10:20.000Z,92.00
2018-10-16T02:11:19.990Z,92.72
2018-10-16T02:12:20.056Z,92.21
2018-10-16T02:13:19.937Z,92.32
2018-10-16T02:14:19.949Z,92.42
2018-10-16T02:15:19.893Z,92.11
2018-10-16T02:16:19.907Z,91.96
2018-10-16T02:17:19.920Z,91.49
2018-10-16T02:18:19.894Z,91.28
2018-10-16T02:19:19.871Z,92.63
2018-10-16T02:20:19.872Z,92.21
2018-10-16T02:21:19.873Z,92.52
2018-10-16T02:22:19.878Z,92.93
2018-10-16T02:23:19.853Z,92.93
2018-10-16T02:24:19.826Z,93.24
2018-10-16T02:25:19.828Z,92.21
2018-10-16T02:26:19.797Z,93.14
2018-10-16T02:27:19.775Z,93.35
2018-10-16T02:28:19.752Z,92.72
2018-10-16T02:29:19.819Z,92.83
2018-10-16T02:30:19.742Z,93.45
2018-10-16T02:31:19.747Z,92.52
2018-10-16T02:32:19.739Z,92.11
2018-10-16T02:33:19.733Z,92.63
2018-10-16T02:34:19.701Z,92.42
2018-10-16T02:35:19.687Z,91.49
2018-10-16T02:36:19.728Z,91.07
2018-10-16T02:37:19.664Z,91.17
2018-10-16T02:38:19.659Z,91.07
2018-10-16T02:39:19.681Z,90.66
2018-10-16T02:40:19.652Z,90.77
2018-10-16T02:41:19.638Z,90.66
2018-10-16T02:42:19.618Z,90.14
2018-10-16T02:43:19.606Z,90.45
2018-10-16T02:44:19.605Z,90.35
2018-10-16T02:45:19.607Z,90.35
2018-10-16T02:46:19.572Z,89.62
2018-10-16T02:47:19.561Z,89.83
2018-10-16T02:48:19.551Z,90.50
2018-10-16T02:49:19.555Z,90.77
2018-10-16T02:50:19.537Z,90.56
2018-10-16T02:51:19.495Z,90.70
2018-10-16T02:52:19.567Z,90.80
2018-10-16T02:53:19.530Z,91.07
2018-10-16T02:54:19.584Z,91.01
2018-10-16T02:55:19.472Z,90.39
2018-10-16T02:56:19.443Z,90.80
2018-10-16T02:57:19.465Z,90.39
2018-10-16T02:58:19.417Z,90.91
2018-10-16T02:59:19.404Z,91.99
2018-10-16T03:00:19.422Z,92.46
2018-10-16T03:01:19.411Z,92.50
2018-10-16T03:02:19.403Z,92.46
2018-10-16T03:03:19.387Z,93.33
2018-10-16T03:04:19.356Z,92.81
2018-10-16T03:05:19.369Z,92.71
2018-10-16T03:06:19.352Z,93.43
2018-10-16T03:07:19.323Z,93.02
2018-10-16T03:08:19.303Z,92.81
2018-10-16T03:09:19.298Z,93.33
2018-10-16T03:10:19.310Z,93.85
2018-10-16T03:11:19.266Z,94.47
2018-10-16T03:12:19.283Z,94.57
2018-10-16T03:13:19.261Z,94.57
2018-10-16T03:14:19.233Z,93.95
2018-10-16T03:15:19.251Z,93.23
2018-10-16T03:16:19.277Z,93.64
2018-10-16T03:17:19.214Z,93.54
2018-10-16T03:18:19.228Z,93.23
2018-10-16T03:19:19.184Z,93.23
2018-10-16T03:20:19.263Z,93.43
2018-10-16T03:21:19.192Z,93.54
2018-10-16T03:22:19.156Z,93.74
2018-10-16T03:23:19.143Z,93.54
2018-10-16T03:24:19.161Z,92.40
2018-10-16T03:25:19.154Z,93.43
2018-10-16T03:26:19.139Z,92.30
2018-10-16T03:27:19.117Z,92.40
2018-10-16T03:28:19.121Z,92.71
2018-10-16T03:29:19.149Z,92.50
2018-10-16T03:30:19.131Z,92.40
2018-10-16T03:31:19.090Z,91.78
2018-10-16T03:32:19.073Z,91.78
2018-10-16T03:33:19.063Z,92.19
2018-10-16T03:34:19.048Z,90.95
2018-10-16T03:35:19.007Z,90.95
2018-10-16T03:36:19.020Z,90.95
2018-10-16T03:37:19.014Z,90.84
2018-10-16T03:38:19.026Z,90.53
2018-10-16T03:39:18.993Z,90.74
2018-10-16T03:40:18.980Z,90.74
2018-10-16T03:41:18.944Z,90.84
2018-10-16T03:42:18.966Z,91.16
2018-10-16T03:43:18.954Z,90.50
2018-10-16T03:44:18.912Z,91.05
2018-10-16T03:45:18.908Z,90.95
2018-10-16T03:46:18.918Z,90.53
2018-10-16T03:47:18.880Z,90.23
2018-10-16T03:48:18.868Z,90.74
2018-10-16T03:49:18.876Z,90.44
2018-10-16T03:50:18.903Z,90.53
2018-10-16T03:51:18.861Z,90.68
2018-10-16T03:52:18.868Z,90.64
2018-10-16T03:53:18.816Z,90.89
2018-10-16T03:54:18.849Z,90.95
2018-10-16T03:55:18.778Z,90.99
2018-10-16T03:56:18.812Z,90.99
2018-10-16T03:57:18.884Z,90.89
2018-10-16T03:58:18.775Z,90.53
2018-10-16T03:59:18.745Z,89.92
2018-10-16T04:00:18.776Z,89.96
2018-10-16T04:01:18.734Z,89.86
2018-10-16T04:02:18.714Z,89.61
2018-10-16T04:03:18.696Z,89.65
2018-10-16T04:04:18.677Z,89.86
2018-10-16T04:05:18.699Z,90.58
2018-10-16T04:06:18.701Z,90.89
2018-10-16T04:07:18.677Z,91.30
2018-10-16T04:08:18.636Z,91.20
2018-10-16T04:09:18.679Z,92.13
2018-10-16T04:10:18.614Z,91.82
2018-10-16T04:11:18.659Z,91.61
2018-10-16T04:12:18.602Z,92.55
2018-10-16T04:13:18.580Z,92.24
2018-10-16T04:14:18.576Z,92.24
2018-10-16T04:15:18.591Z,92.76
2018-10-16T04:16:18.553Z,92.44
2018-10-16T04:17:18.568Z,91.82
2018-10-16T04:18:18.562Z,91.82
2018-10-16T04:19:18.539Z,91.72
2018-10-16T04:20:18.518Z,92.03
2018-10-16T04:21:18.513Z,91.82
2018-10-16T04:22:18.537Z,91.61
2018-10-16T04:23:18.473Z,91.72
2018-10-16T04:24:18.494Z,91.82
2018-10-16T04:25:18.446Z,92.03
2018-10-16T04:26:18.443Z,92.03
2018-10-16T04:27:18.459Z,91.61
2018-10-16T04:28:18.426Z,92.13
2018-10-16T04:29:18.621Z,92.65
2018-10-16T04:30:18.414Z,92.55
2018-10-16T04:31:18.395Z,92.65
2018-10-16T04:32:18.371Z,91.76
2018-10-16T04:33:18.408Z,92.13
2018-10-16T04:34:18.376Z,91.72
2018-10-16T04:35:18.344Z,91.72
2018-10-16T04:36:18.351Z,92.03
2018-10-16T04:37:18.351Z,91.93
2018-10-16T04:38:18.365Z,91.61
2018-10-16T04:39:18.353Z,91.45
2018-10-16T04:40:18.298Z,91.76
2018-10-16T04:41:18.276Z,92.44
2018-10-16T04:42:18.285Z,91.61
2018-10-16T04:43:18.401Z,92.24
2018-10-16T04:44:18.253Z,92.34
2018-10-16T04:45:18.248Z,92.34
2018-10-16T04:46:18.310Z,92.65
2018-10-16T04:47:18.218Z,92.44
2018-10-16T04:48:18.221Z,92.96
2018-10-16T04:49:18.197Z,92.85
2018-10-16T04:50:18.229Z,92.55
2018-10-16T04:51:18.174Z,92.44
2018-10-16T04:52:18.157Z,92.55
2018-10-16T04:53:18.208Z,93.37
2018-10-16T04:54:18.225Z,93.27
2018-10-16T04:55:18.225Z,92.55
2018-10-16T04:56:18.114Z,92.85
2018-10-16T04:57:18.105Z,92.34
2018-10-16T04:58:18.115Z,92.44
2018-10-16T04:59:18.087Z,92.55
2018-10-16T05:00:18.060Z,92.34
2018-10-16T05:01:18.067Z,92.24
2018-10-16T05:02:18.090Z,92.13
2018-10-16T05:03:18.117Z,92.34
2018-10-16T05:04:18.219Z,92.55
2018-10-16T05:05:18.060Z,92.44
2018-10-16T05:06:18.152Z,92.44
2018-10-16T05:07:18.060Z,92.24
2018-10-16T05:08:18.034Z,92.44
2018-10-16T05:09:17.982Z,92.44
2018-10-16T05:10:18.087Z,92.34
2018-10-16T05:11:17.949Z,92.50
2018-10-16T05:12:17.939Z,91.47
2018-10-16T05:13:18.033Z,91.61
2018-10-16T05:14:17.935Z,92.03
2018-10-16T05:15:17.921Z,91.41
2018-10-16T05:16:18.006Z,92.13
2018-10-16T05:17:17.891Z,91.82
2018-10-16T05:18:17.940Z,92.55
2018-10-16T05:19:17.963Z,92.24
2018-10-16T05:20:17.902Z,92.24
2018-10-16T05:21:17.893Z,92.34
2018-10-16T05:22:17.869Z,92.44
2018-10-16T05:23:17.884Z,92.24
2018-10-16T05:24:17.835Z,92.44
2018-10-16T05:25:17.795Z,92.55
2018-10-16T05:26:17.823Z,92.34
2018-10-16T05:27:17.820Z,91.72
2018-10-16T05:28:17.775Z,91.61
2018-10-16T05:29:17.756Z,92.03
2018-10-16T05:30:17.743Z,91.61
2018-10-16T05:31:17.918Z,92.18
2018-10-16T05:32:17.787Z,91.61
2018-10-16T05:33:17.717Z,91.86
2018-10-16T05:34:17.741Z,92.24
2018-10-16T05:35:17.672Z,92.38
2018-10-16T05:36:17.719Z,92.03
2018-10-16T05:37:17.650Z,92.65
2018-10-16T05:38:17.647Z,92.49
2018-10-16T05:39:17.725Z,92.65
2018-10-16T05:40:17.655Z,92.65
2018-10-16T05:41:17.605Z,93.06
2018-10-16T05:42:17.611Z,93.37
2018-10-16T05:43:17.599Z,93.16
2018-10-16T05:44:17.592Z,93.58
2018-10-16T05:45:17.606Z,93.37
2018-10-16T05:46:17.561Z,93.27
2018-10-16T05:47:17.586Z,92.76
2018-10-16T05:48:17.552Z,93.89
2018-10-16T05:49:17.533Z,92.55
2018-10-16T05:50:17.523Z,93.58
2018-10-16T05:51:17.511Z,93.79
2018-10-16T05:52:17.540Z,93.68
2018-10-16T05:53:17.466Z,93.27
2018-10-16T05:54:17.545Z,93.58
2018-10-16T05:55:17.493Z,92.65
2018-10-16T05:56:17.464Z,92.96
2018-10-16T05:57:17.428Z,93.16
2018-10-16T05:58:17.456Z,93.06
2018-10-16T05:59:17.405Z,93.37
2018-10-16T06:00:17.405Z,93.16
2018-10-16T06:01:17.410Z,93.43
2018-10-16T06:02:17.392Z,93.43
2018-10-16T06:03:17.356Z,93.74
2018-10-16T06:04:17.357Z,93.74
2018-10-16T06:05:17.353Z,94.16
2018-10-16T06:06:17.343Z,93.85
2018-10-16T06:07:17.357Z,94.68
2018-10-16T06:08:17.321Z,94.37
2018-10-16T06:09:17.311Z,94.47
2018-10-16T06:10:17.302Z,93.85
2018-10-16T06:11:17.283Z,93.80
2018-10-16T06:12:17.325Z,93.64
2018-10-16T06:13:17.303Z,93.64
2018-10-16T06:14:17.249Z,93.12
2018-10-16T06:15:17.242Z,93.60
2018-10-16T06:16:17.280Z,93.60
2018-10-16T06:17:17.240Z,93.80
2018-10-16T06:18:17.236Z,93.60
2018-10-16T06:19:17.214Z,94.73
2018-10-16T06:20:17.185Z,93.80
2018-10-16T06:21:17.177Z,93.91
2018-10-16T06:22:17.172Z,94.53
2018-10-16T06:23:17.168Z,93.87
2018-10-16T06:24:17.184Z,94.07
2018-10-16T06:25:17.136Z,94.18
2018-10-16T06:26:17.137Z,94.48
2018-10-16T06:27:17.109Z,94.07
2018-10-16T06:28:17.089Z,94.07
2018-10-16T06:29:17.080Z,95.10
2018-10-16T06:30:17.158Z,94.48
2018-10-16T06:31:17.080Z,95.21
2018-10-16T06:32:17.085Z,94.85
2018-10-16T06:33:17.088Z,94.85
2018-10-16T06:34:17.020Z,94.85
2018-10-16T06:35:17.004Z,95.27
2018-10-16T06:36:17.004Z,95.17
2018-10-16T06:37:17.040Z,95.22
2018-10-16T06:38:17.019Z,95.12
2018-10-16T06:39:17.028Z,95.12
2018-10-16T06:40:16.996Z,95.22
2018-10-16T06:41:17.096Z,95.22
2018-10-16T06:42:16.947Z,95.07
2018-10-16T06:43:17.005Z,94.87
2018-10-16T06:44:16.994Z,94.56
2018-10-16T06:45:16.989Z,94.77
2018-10-16T06:46:16.892Z,94.56
2018-10-16T06:47:16.946Z,94.67
2018-10-16T06:48:17.096Z,94.93
2018-10-16T06:49:16.886Z,94.42
2018-10-16T06:50:16.842Z,93.90
2018-10-16T06:51:16.881Z,93.90
2018-10-16T06:52:16.889Z,94.06
2018-10-16T06:53:16.918Z,94.31
2018-10-16T06:54:16.859Z,94.06
2018-10-16T06:55:16.963Z,93.85
2018-10-16T06:56:16.799Z,93.96
2018-10-16T06:57:16.782Z,94.27
2018-10-16T06:58:16.746Z,94.57
2018-10-16T06:59:16.755Z,93.40
2018-10-16T07:00:16.830Z,93.60
2018-10-16T07:01:16.746Z,93.30
2018-10-16T07:02:16.746Z,93.50
2018-10-16T07:03:16.689Z,93.40
2018-10-16T07:04:16.698Z,92.94
2018-10-16T07:05:16.664Z,93.19
2018-10-16T07:06:16.667Z,93.09
2018-10-16T07:07:16.960Z,92.94
2018-10-16T07:08:16.696Z,93.25
2018-10-16T07:09:16.627Z,92.94
2018-10-16T07:10:16.625Z,93.15
2018-10-16T07:11:16.618Z,93.01
2018-10-16T07:12:16.592Z,92.90
2018-10-16T07:13:16.585Z,93.11
2018-10-16T07:14:16.566Z,93.01
2018-10-16T07:15:16.608Z,91.93
2018-10-16T07:16:16.556Z,92.34
2018-10-16T07:17:16.553Z,92.03
2018-10-16T07:18:16.537Z,92.24
2018-10-16T07:19:16.517Z,92.14
2018-10-16T07:20:16.500Z,91.72
2018-10-16T07:21:16.569Z,91.93
2018-10-16T07:22:16.485Z,91.58
2018-10-16T07:23:16.489Z,91.68
2018-10-16T07:24:16.453Z,92.05
2018-10-16T07:25:16.461Z,91.53
2018-10-16T07:26:16.429Z,90.81
2018-10-16T07:27:16.440Z,91.02
2018-10-16T07:28:16.444Z,91.44
2018-10-16T07:29:16.397Z,90.47
2018-10-16T07:30:16.438Z,90.47
2018-10-16T07:31:16.396Z,91.49
2018-10-16T07:32:16.365Z,90.78
2018-10-16T07:33:16.364Z,90.22
2018-10-16T07:34:16.380Z,90.53
2018-10-16T07:35:16.333Z,89.64
2018-10-16T07:36:16.333Z,90.22
2018-10-16T07:37:16.343Z,90.32
2018-10-16T07:38:16.463Z,90.38
2018-10-16T07:39:16.285Z,90.08
2018-10-16T07:40:16.292Z,89.25
2018-10-16T07:41:16.299Z,89.01
2018-10-16T07:42:16.272Z,89.04
2018-10-16T07:43:16.287Z,88.33
2018-10-16T07:44:16.235Z,88.70
2018-10-16T07:45:16.237Z,89.21
2018-10-16T07:46:16.216Z,88.29
2018-10-16T07:47:16.203Z,88.08
2018-10-16T07:48:16.270Z,87.73
2018-10-16T07:49:16.203Z,87.43
2018-10-16T07:50:16.177Z,87.22
2018-10-16T07:51:16.155Z,87.43
2018-10-16T07:52:16.189Z,86.91
2018-10-16T07:53:16.155Z,87.02
2018-10-16T07:54:16.177Z,87.32
2018-10-16T07:55:16.116Z,87.28
2018-10-16T07:56:16.097Z,87.38
2018-10-16T07:57:16.162Z,86.98
2018-10-16T07:58:16.084Z,87.18
2018-10-16T07:59:16.098Z,86.87
2018-10-16T08:00:16.080Z,87.38
2018-10-16T08:01:16.060Z,86.87
2018-10-16T08:02:16.036Z,86.52
2018-10-16T08:03:16.021Z,85.80
2018-10-16T08:04:16.028Z,86.01
2018-10-16T08:05:16.030Z,86.28
2018-10-16T08:06:16.047Z,86.58
2018-10-16T08:07:16.112Z,86.18
2018-10-16T08:08:15.974Z,85.97
2018-10-16T08:09:15.958Z,85.87
2018-10-16T08:10:15.970Z,86.04
2018-10-16T08:11:15.944Z,86.14
2018-10-16T08:12:15.944Z,85.11
2018-10-16T08:13:15.925Z,86.24
2018-10-16T08:14:15.959Z,84.87
2018-10-16T08:15:15.980Z,84.87
2018-10-16T08:16:15.902Z,86.20
2018-10-16T08:17:16.049Z,85.99
2018-10-16T08:18:15.875Z,86.10
2018-10-16T08:19:15.871Z,85.89
2018-10-16T08:20:15.845Z,84.77
2018-10-16T08:21:15.832Z,84.83
2018-10-16T08:22:15.814Z,85.96
2018-10-16T08:23:15.943Z,85.03
2018-10-16T08:24:15.793Z,84.93
2018-10-16T08:25:15.800Z,85.85
2018-10-16T08:26:15.951Z,86.16
2018-10-16T08:27:15.775Z,85.96
2018-10-16T08:28:15.745Z,85.03
2018-10-16T08:29:15.797Z,84.79
2018-10-16T08:30:15.764Z,84.69
2018-10-16T08:31:15.733Z,84.38
2018-10-16T08:32:15.761Z,84.79
2018-10-16T08:33:15.694Z,84.48
2018-10-16T08:34:15.783Z,84.75
2018-10-16T08:35:15.668Z,84.75
2018-10-16T08:36:15.796Z,85.97
2018-10-16T08:37:15.771Z,84.65
2018-10-16T08:38:15.652Z,83.83
2018-10-16T08:39:15.648Z,83.42
2018-10-16T08:40:15.650Z,84.34
2018-10-16T08:41:15.629Z,84.03
2018-10-16T08:42:15.607Z,84.09
2018-10-16T08:43:15.574Z,84.30
2018-10-16T08:44:15.671Z,84.20
2018-10-16T08:45:15.582Z,84.09
2018-10-16T08:46:15.548Z,84.00
2018-10-16T08:47:15.555Z,84.71
2018-10-16T08:48:15.528Z,84.06
2018-10-16T08:49:15.507Z,84.16
2018-10-16T08:50:15.494Z,84.06
2018-10-16T08:51:15.484Z,83.85
2018-10-16T08:52:15.476Z,83.75
2018-10-16T08:53:15.499Z,83.81
2018-10-16T08:54:15.487Z,84.53
2018-10-16T08:55:15.442Z,83.34
2018-10-16T08:56:15.427Z,83.10
2018-10-16T08:57:15.418Z,83.00
2018-10-16T08:58:15.409Z,82.89
2018-10-16T08:59:15.417Z,83.20
2018-10-16T09:00:15.419Z,82.86
2018-10-16T09:01:15.398Z,81.84
2018-10-16T09:02:15.358Z,82.86
2018-10-16T09:03:15.350Z,84.08
2018-10-16T09:04:15.360Z,82.04
2018-10-16T09:05:15.342Z,81.80
2018-10-16T09:06:15.336Z,82.61
2018-10-16T09:07:15.344Z,81.70
2018-10-16T09:08:15.298Z,81.80
2018-10-16T09:09:15.287Z,82.17
2018-10-16T09:10:15.278Z,81.25
2018-10-16T09:11:15.289Z,81.01
2018-10-16T09:12:15.263Z,80.29
2018-10-16T09:13:15.304Z,80.56
2018-10-16T09:14:15.316Z,80.26
2018-10-16T09:15:15.233Z,80.05
2018-10-16T09:16:15.231Z,80.26
2018-10-16T09:17:15.192Z,80.32
2018-10-16T09:18:15.181Z,79.10
2018-10-16T09:19:15.183Z,79.20
2018-10-16T09:20:15.161Z,79.00
2018-10-16T09:21:15.173Z,78.25
2018-10-16T09:22:15.148Z,77.74
2018-10-16T09:23:15.212Z,78.05
2018-10-16T09:24:15.116Z,78.41
2018-10-16T09:25:15.262Z,78.01
2018-10-16T09:26:15.128Z,78.11
2018-10-16T09:27:15.086Z,78.11
2018-10-16T09:28:15.071Z,77.50
2018-10-16T09:29:15.070Z,75.98
2018-10-16T09:30:15.048Z,75.12
2018-10-16T09:31:15.091Z,74.62
2018-10-16T09:32:15.111Z,74.88
2018-10-16T09:33:15.075Z,74.44
2018-10-16T09:34:15.114Z,74.14
2018-10-16T09:35:15.128Z,74.21
2018-10-16T09:36:14.994Z,74.31
2018-10-16T09:37:15.158Z,73.39
2018-10-16T09:38:15.123Z,73.60
2018-10-16T09:39:14.963Z,73.09
2018-10-16T09:40:14.941Z,72.89
2018-10-16T09:41:14.921Z,73.36
2018-10-16T09:42:14.940Z,73.09
2018-10-16T09:43:14.898Z,73.29
2018-10-16T09:44:14.903Z,72.75
2018-10-16T09:45:14.951Z,73.06
2018-10-16T09:46:14.884Z,72.75
2018-10-16T09:47:14.856Z,72.34
2018-10-16T09:48:14.874Z,72.72
2018-10-16T09:49:15.014Z,72.92
2018-10-16T09:50:14.827Z,72.72
2018-10-16T09:51:14.853Z,71.40
2018-10-16T09:52:14.798Z,71.09
2018-10-16T09:53:14.802Z,71.06
2018-10-16T09:54:14.795Z,71.70
2018-10-16T09:55:14.765Z,72.31
2018-10-16T09:56:14.763Z,71.26
2018-10-16T09:57:14.753Z,69.24
2018-10-16T09:58:14.769Z,68.19
2018-10-16T09:59:14.746Z,66.88
2018-10-16T10:00:14.715Z,66.06
2018-10-16T10:01:14.715Z,67.08
2018-10-16T10:02:14.691Z,66.84
2018-10-16T10:03:14.681Z,67.76
2018-10-16T10:04:14.774Z,67.48
2018-10-16T10:05:14.678Z,65.83
2018-10-16T10:06:14.644Z,66.84
2018-10-16T10:07:14.678Z,66.64
2018-10-16T10:08:14.654Z,66.84
2018-10-16T10:09:14.610Z,67.55
2018-10-16T10:10:14.660Z,67.35
2018-10-16T10:11:14.589Z,66.20
2018-10-16T10:12:14.576Z,67.32
2018-10-16T10:13:14.589Z,66.91
2018-10-16T10:14:14.554Z,66.50
2018-10-16T10:15:14.684Z,65.80
2018-10-16T10:16:14.551Z,66.07
2018-10-16T10:17:14.524Z,65.97
2018-10-16T10:18:14.513Z,66.27
2018-10-16T10:19:14.511Z,65.47
2018-10-16T10:20:14.512Z,64.55
2018-10-16T10:21:14.498Z,64.76
2018-10-16T10:22:14.487Z,64.76
2018-10-16T10:23:14.553Z,64.96
2018-10-16T10:24:14.500Z,65.23
2018-10-16T10:25:14.491Z,64.02
2018-10-16T10:26:14.454Z,64.32
2018-10-16T10:27:14.415Z,65.03
2018-10-16T10:28:14.446Z,64.12
2018-10-16T10:29:14.412Z,63.78
2018-10-16T10:30:14.376Z,64.39
2018-10-16T10:31:14.388Z,64.19
2018-10-16T10:32:14.359Z,64.09
2018-10-16T10:33:14.367Z,64.26
2018-10-16T10:34:14.399Z,62.95
2018-10-16T10:35:14.351Z,63.76
2018-10-16T10:36:14.317Z,63.35
2018-10-16T10:37:14.321Z,64.26
2018-10-16T10:38:14.301Z,65.07
2018-10-16T10:39:14.326Z,65.17
2018-10-16T10:40:14.297Z,65.07
2018-10-16T10:41:14.264Z,63.65
2018-10-16T10:42:14.378Z,62.85
2018-10-16T10:43:14.257Z,63.93
2018-10-16T10:44:14.225Z,63.22
2018-10-16T10:45:14.261Z,63.02
2018-10-16T10:46:14.229Z,63.42
2018-10-16T10:47:14.199Z,62.82
2018-10-16T10:48:14.203Z,61.51
2018-10-16T10:49:14.184Z,61.27
2018-10-16T10:50:14.416Z,60.97
2018-10-16T10:51:14.546Z,61.68
2018-10-16T10:52:14.136Z,60.44
2018-10-16T10:53:14.201Z,60.66
2018-10-16T10:54:14.112Z,60.64
2018-10-16T10:55:14.108Z,61.44
2018-10-16T10:56:14.139Z,61.35
2018-10-16T10:57:14.265Z,61.24
2018-10-16T10:58:14.073Z,62.18
2018-10-16T10:59:14.054Z,61.44
2018-10-16T11:00:15.035Z,61.95
2018-10-16T11:01:14.113Z,61.95
2018-10-16T11:02:14.035Z,61.85
2018-10-16T11:03:14.059Z,61.14
2018-10-16T11:04:14.017Z,61.55
2018-10-16T11:05:14.006Z,60.74
2018-10-16T11:06:13.978Z,59.90
2018-10-16T11:07:13.983Z,60.44
2018-10-16T11:08:13.955Z,61.11
2018-10-16T11:09:14.041Z,60.21
2018-10-16T11:10:13.978Z,59.90
2018-10-16T11:11:13.920Z,60.31
2018-10-16T11:12:13.964Z,59.70
2018-10-16T11:13:13.908Z,59.77
2018-10-16T11:14:13.888Z,59.77
2018-10-16T11:15:14.036Z,59.67
2018-10-16T11:16:13.875Z,59.97
2018-10-16T11:17:13.901Z,60.15
2018-10-16T11:18:13.854Z,59.57
2018-10-16T11:19:13.931Z,59.67
2018-10-16T11:20:13.841Z,59.04
2018-10-16T11:21:13.868Z,59.27
2018-10-16T11:22:13.825Z,59.17
2018-10-16T11:23:13.808Z,57.43
2018-10-16T11:24:13.800Z,57.53
2018-10-16T11:25:13.763Z,57.32
2018-10-16T11:26:13.750Z,57.23
2018-10-16T11:27:13.905Z,56.22
2018-10-16T11:28:13.789Z,56.72
2018-10-16T11:29:13.733Z,57.32
2018-10-16T11:30:13.805Z,58.74
2018-10-16T11:31:13.726Z,56.62
2018-10-16T11:32:13.697Z,56.82
2018-10-16T11:33:13.743Z,57.40
2018-10-16T11:34:13.696Z,57.00
2018-10-16T11:35:13.705Z,57.50
2018-10-16T11:36:13.669Z,54.96
2018-10-16T11:37:13.626Z,55.59
2018-10-16T11:38:13.620Z,56.07
2018-10-16T11:39:13.680Z,54.66
2018-10-16T11:40:13.619Z,53.85
2018-10-16T11:41:13.640Z,53.85
2018-10-16T11:42:13.578Z,53.05
2018-10-16T11:43:13.565Z,54.05
2018-10-16T11:44:13.710Z,54.35
2018-10-16T11:45:13.630Z,54.25
2018-10-16T11:46:13.545Z,54.05
2018-10-16T11:47:13.517Z,53.95
2018-10-16T11:48:13.511Z,53.85
2018-10-16T11:49:13.532Z,52.44
2018-10-16T11:50:13.593Z,53.52
2018-10-16T11:51:13.476Z,52.54
2018-10-16T11:52:13.475Z,51.84
2018-10-16T11:53:13.452Z,53.05
2018-10-16T11:54:13.451Z,53.63
2018-10-16T11:55:13.452Z,56.04
2018-10-16T11:56:13.552Z,55.03
2018-10-16T11:57:13.406Z,53.72
2018-10-16T11:58:13.407Z,54.23
2018-10-16T11:59:13.463Z,53.83
2018-10-16T12:00:13.452Z,52.82
2018-10-16T12:01:13.379Z,54.43
2018-10-16T12:02:13.496Z,53.12
2018-10-16T12:03:13.337Z,53.92
2018-10-16T12:04:13.375Z,52.01
2018-10-16T12:05:13.331Z,50.81
2018-10-16T12:06:13.378Z,51.51
2018-10-16T12:07:13.361Z,52.11
2018-10-16T12:08:13.512Z,52.51
2018-10-16T12:09:13.345Z,52.72
2018-10-16T12:10:13.332Z,53.63
2018-10-16T12:11:13.358Z,52.42
2018-10-16T12:12:13.264Z,53.42
2018-10-16T12:13:13.285Z,52.11
2018-10-16T12:14:13.304Z,52.22
2018-10-16T12:15:13.214Z,51.79
2018-10-16T12:16:13.231Z,52.69
2018-10-16T12:17:13.201Z,50.78
2018-10-16T12:18:13.173Z,51.18
2018-10-16T12:19:13.232Z,51.79
2018-10-16T12:20:13.162Z,52.09
2018-10-16T12:21:13.197Z,51.66
2018-10-16T12:22:13.175Z,51.16
2018-10-16T12:23:13.118Z,52.37
2018-10-16T12:24:13.157Z,51.97
2018-10-16T12:25:13.169Z,53.47
2018-10-16T12:26:13.085Z,52.67
2018-10-16T12:27:13.161Z,52.17
2018-10-16T12:28:13.119Z,51.76
2018-10-16T12:29:13.099Z,51.76
2018-10-16T12:30:13.065Z,51.76
2018-10-16T12:31:13.071Z,50.66
2018-10-16T12:32:13.039Z,51.06
2018-10-16T12:33:13.059Z,51.56
2018-10-16T12:34:12.990Z,51.74
2018-10-16T12:35:13.022Z,49.85
2018-10-16T12:36:13.030Z,48.85
2018-10-16T12:37:13.030Z,49.45
2018-10-16T12:38:12.984Z,50.05
2018-10-16T12:39:13.026Z,48.85
2018-10-16T12:40:13.061Z,49.65
2018-10-16T12:41:13.187Z,48.85
2018-10-16T12:42:12.966Z,48.65
2018-10-16T12:43:13.065Z,48.75
2018-10-16T12:44:12.884Z,49.45
2018-10-16T12:45:12.975Z,48.75
2018-10-16T12:46:12.928Z,48.75
2018-10-16T12:47:13.025Z,48.85
2018-10-16T12:48:12.885Z,49.93
2018-10-16T12:49:12.850Z,50.46
2018-10-16T12:50:12.849Z,49.35
2018-10-16T12:51:12.994Z,49.25
2018-10-16T12:52:12.792Z,48.95